Time;durP1;ratioP1;P1;durP2;ratioP2;P2;SDS_P1;SDS_P2;PMS_P1;PMS_P2;Temp;Humidity;BMP_temperature;BMP_pressure;BME280_temperature;BME280_humidity;BME280_pressure;Samples;Min_cycle;Max_cycle;Signal;HPM_P1;HPM_P2
2020/12/24 00:01:57;;;;;;;16.20;5.43;;;;;;;;;;4968155;28;20043;-69
2020/12/24 00:04:22;;;;;;;50.75;6.60;;;;;;;;;;4971171;28;20031;-69
2020/12/24 00:06:49;;;;;;;49.83;6.68;;;;;;;;;;4967833;28;20039;-69
2020/12/24 00:09:15;;;;;;;88.53;6.78;;;;;;;;;;4972842;28;20051;-69
2020/12/24 00:11:41;;;;;;;33.15;7.80;;;;;;;;;;4971187;28;20047;-69
2020/12/24 00:14:07;;;;;;;60.53;8.63;;;;;;;;;;4959547;28;20047;-69
2020/12/24 00:16:33;;;;;;;124.82;10.43;;;;;;;;;;4960298;28;20086;-69
2020/12/24 00:18:59;;;;;;;176.40;9.70;;;;;;;;;;4957283;28;20043;-69
2020/12/24 00:21:25;;;;;;;138.80;10.23;;;;;;;;;;4958857;28;20047;-69
2020/12/24 00:23:52;;;;;;;137.63;9.45;;;;;;;;;;4965361;28;20046;-69
2020/12/24 00:26:18;;;;;;;128.85;9.93;;;;;;;;;;4959532;28;20050;-69
2020/12/24 00:28:44;;;;;;;80.32;7.40;;;;;;;;;;4962817;28;20506;-69
2020/12/24 00:31:10;;;;;;;106.55;9.40;;;;;;;;;;4969609;28;20046;-69
2020/12/24 00:33:37;;;;;;;78.60;6.57;;;;;;;;;;4967136;28;20596;-69
2020/12/24 00:36:03;;;;;;;116.05;7.97;;;;;;;;;;4967358;28;20142;-69
2020/12/24 00:38:29;;;;;;;131.63;10.45;;;;;;;;;;4958157;28;20039;-69
2020/12/24 00:40:55;;;;;;;70.75;5.60;;;;;;;;;;4969037;28;20051;-69
2020/12/24 00:43:22;;;;;;;136.70;9.00;;;;;;;;;;4966280;28;20040;-69
2020/12/24 00:45:48;;;;;;;162.70;9.23;;;;;;;;;;4963362;28;20414;-69
2020/12/24 00:48:24;;;;;;;108.57;6.80;;;;;;;;;;4970591;28;20054;-69
2020/12/24 00:50:50;;;;;;;141.65;8.40;;;;;;;;;;4966013;28;20525;-69
2020/12/24 00:53:16;;;;;;;142.20;8.60;;;;;;;;;;4961360;28;20145;-69
2020/12/24 00:55:43;;;;;;;129.85;6.45;;;;;;;;;;4947551;28;20503;-69
2020/12/24 00:58:09;;;;;;;109.47;7.00;;;;;;;;;;4961909;28;20043;-69
2020/12/24 01:00:36;;;;;;;62.28;4.95;;;;;;;;;;4964357;28;20671;-69
2020/12/24 01:03:02;;;;;;;88.45;5.00;;;;;;;;;;4946406;29;20105;-69
2020/12/24 01:05:28;;;;;;;102.95;7.18;;;;;;;;;;4964761;28;20047;-69
2020/12/24 01:07:55;;;;;;;60.55;5.72;;;;;;;;;;4968519;28;20110;-69
2020/12/24 01:10:21;;;;;;;24.35;2.90;;;;;;;;;;4957924;28;20498;-69
2020/12/24 01:12:47;;;;;;;62.83;4.90;;;;;;;;;;4965419;28;20046;-69
2020/12/24 01:15:13;;;;;;;32.35;3.65;;;;;;;;;;4961366;28;20047;-69
2020/12/24 01:17:40;;;;;;;45.20;3.53;;;;;;;;;;4962636;28;20446;-69
2020/12/24 01:20:06;;;;;;;42.50;2.92;;;;;;;;;;4964523;28;20067;-69
2020/12/24 01:22:33;;;;;;;26.90;2.80;;;;;;;;;;4967116;28;20397;-70
2020/12/24 01:25:00;;;;;;;29.67;3.17;;;;;;;;;;4970189;28;20125;-69
2020/12/24 01:27:26;;;;;;;26.92;2.95;;;;;;;;;;4968003;28;20046;-69
2020/12/24 01:29:52;;;;;;;21.27;3.15;;;;;;;;;;4968742;28;20035;-69
2020/12/24 01:32:18;;;;;;;17.55;3.00;;;;;;;;;;4953434;28;20043;-69
2020/12/24 01:34:45;;;;;;;18.52;2.88;;;;;;;;;;4948150;28;20046;-69
2020/12/24 01:37:11;;;;;;;28.92;3.08;;;;;;;;;;4967101;28;20083;-69
2020/12/24 01:39:38;;;;;;;72.88;3.80;;;;;;;;;;4968314;28;20054;-69
2020/12/24 01:42:04;;;;;;;41.03;3.20;;;;;;;;;;4957033;28;20130;-69
2020/12/24 01:44:30;;;;;;;45.80;5.15;;;;;;;;;;4965468;28;20407;-69
2020/12/24 01:46:56;;;;;;;44.65;3.78;;;;;;;;;;4962275;28;20047;-69
2020/12/24 01:49:22;;;;;;;31.83;3.58;;;;;;;;;;4966305;28;20058;-69
2020/12/24 01:51:55;;;;;;;35.70;3.80;;;;;;;;;;4964031;28;20130;-69
2020/12/24 01:54:22;;;;;;;30.15;3.75;;;;;;;;;;4962656;28;20298;-69
2020/12/24 01:56:48;;;;;;;18.17;3.75;;;;;;;;;;4945243;28;20045;-70
2020/12/24 01:59:16;;;;;;;26.10;4.82;;;;;;;;;;4962715;28;20110;-69
2020/12/24 02:01:42;;;;;;;;;;;;;;;;;;4965478;28;20045;-69
2020/12/24 02:04:09;;;;;;;22.70;3.90;;;;;;;;;;4967182;28;19926;-69
2020/12/24 02:06:36;;;;;;;25.80;3.58;;;;;;;;;;4969676;28;20050;-69
2020/12/24 02:09:02;;;;;;;29.08;4.68;;;;;;;;;;4958509;28;20530;-69
2020/12/24 02:11:29;;;;;;;26.23;4.18;;;;;;;;;;4962894;28;20113;-69
2020/12/24 02:13:55;;;;;;;36.23;4.73;;;;;;;;;;4965012;28;20503;-69
2020/12/24 02:16:21;;;;;;;40.17;4.63;;;;;;;;;;4970656;28;20130;-69
2020/12/24 02:18:47;;;;;;;78.05;4.97;;;;;;;;;;4966790;28;20038;-69
2020/12/24 02:21:13;;;;;;;90.28;5.65;;;;;;;;;;4968505;28;20038;-69
2020/12/24 02:23:40;;;;;;;122.03;9.27;;;;;;;;;;4966001;28;20058;-69
2020/12/24 02:26:06;;;;;;;48.00;5.95;;;;;;;;;;4960876;28;20110;-70
2020/12/24 02:28:32;;;;;;;45.67;5.88;;;;;;;;;;4966784;28;20047;-69
2020/12/24 02:31:00;;;;;;;30.52;5.18;;;;;;;;;;4962154;28;20129;-69
2020/12/24 02:33:26;;;;;;;33.65;4.95;;;;;;;;;;4943599;28;20098;-69
2020/12/24 02:35:52;;;;;;;35.45;5.45;;;;;;;;;;4966325;28;20561;-70
2020/12/24 02:38:18;;;;;;;36.63;5.38;;;;;;;;;;4962430;28;20046;-69
2020/12/24 02:40:44;;;;;;;46.33;6.13;;;;;;;;;;4966555;28;20042;-69
2020/12/24 02:43:11;;;;;;;83.82;8.55;;;;;;;;;;4963954;28;20490;-69
2020/12/24 02:45:37;;;;;;;66.68;7.35;;;;;;;;;;4969028;28;20055;-69
2020/12/24 02:48:03;;;;;;;45.40;5.63;;;;;;;;;;4968141;28;20047;-70
2020/12/24 02:50:30;;;;;;;54.95;5.80;;;;;;;;;;4965163;28;20042;-70
2020/12/24 02:52:56;;;;;;;47.00;6.03;;;;;;;;;;4955718;28;20055;-69
2020/12/24 02:55:22;;;;;;;89.22;8.25;;;;;;;;;;4960063;28;20138;-69
2020/12/24 02:57:49;;;;;;;93.10;8.95;;;;;;;;;;4966457;28;20189;-70
2020/12/24 03:00:15;;;;;;;63.00;7.25;;;;;;;;;;4966112;28;20042;-69
2020/12/24 03:02:41;;;;;;;95.95;6.70;;;;;;;;;;4965286;28;20051;-69
2020/12/24 03:05:08;;;;;;;145.95;10.18;;;;;;;;;;4959989;28;20061;-69
2020/12/24 03:07:35;;;;;;;140.15;8.18;;;;;;;;;;4957751;28;20098;-70
2020/12/24 03:10:04;;;;;;;94.95;8.20;;;;;;;;;;4965922;28;20043;-70
2020/12/24 03:12:30;;;;;;;87.43;5.47;;;;;;;;;;4956502;28;20403;-70
2020/12/24 03:14:56;;;;;;;88.93;5.82;;;;;;;;;;4956859;28;20299;-70
2020/12/24 03:17:23;;;;;;;70.15;5.38;;;;;;;;;;4958759;28;20050;-69
2020/12/24 03:19:49;;;;;;;67.60;5.25;;;;;;;;;;4959663;28;20075;-70
2020/12/24 03:22:15;;;;;;;99.88;6.57;;;;;;;;;;4956727;28;20038;-69
2020/12/24 03:24:41;;;;;;;118.40;8.10;;;;;;;;;;4959040;28;20105;-70
2020/12/24 03:27:08;;;;;;;76.57;6.57;;;;;;;;;;4967962;28;20050;-69
2020/12/24 03:29:34;;;;;;;45.63;5.27;;;;;;;;;;4965730;28;20143;-69
2020/12/24 03:32:00;;;;;;;53.45;6.38;;;;;;;;;;4964818;28;20502;-69
2020/12/24 03:34:26;;;;;;;35.28;4.90;;;;;;;;;;4957886;28;20074;-70
2020/12/24 03:36:52;;;;;;;50.92;5.70;;;;;;;;;;4957600;28;20595;-69
2020/12/24 03:39:19;;;;;;;57.20;5.80;;;;;;;;;;4961297;28;20047;-70
2020/12/24 03:41:45;;;;;;;78.75;6.50;;;;;;;;;;4965885;28;20050;-70
2020/12/24 03:44:11;;;;;;;78.20;6.78;;;;;;;;;;4953184;28;20049;-69
2020/12/24 03:46:39;;;;;;;51.72;6.05;;;;;;;;;;4975113;28;20058;-69
2020/12/24 03:49:05;;;;;;;58.30;5.30;;;;;;;;;;4971584;28;20046;-70
2020/12/24 03:51:31;;;;;;;71.00;7.05;;;;;;;;;;4957603;28;20122;-69
2020/12/24 03:53:58;;;;;;;32.33;5.28;;;;;;;;;;4960584;28;20035;-69
2020/12/24 03:56:24;;;;;;;21.52;4.40;;;;;;;;;;4959438;28;20042;-70
2020/12/24 03:58:50;;;;;;;21.98;4.70;;;;;;;;;;4962865;28;20045;-70
2020/12/24 04:01:16;;;;;;;37.78;4.55;;;;;;;;;;4950221;28;20130;-69
2020/12/24 04:03:42;;;;;;;118.65;6.50;;;;;;;;;;4958883;28;20569;-70
2020/12/24 04:06:08;;;;;;;58.05;8.80;;;;;;;;;;4969467;28;20047;-70
2020/12/24 04:08:34;;;;;;;76.78;6.53;;;;;;;;;;4969783;28;20043;-70
2020/12/24 04:11:00;;;;;;;111.32;8.68;;;;;;;;;;4970559;28;20043;-70
2020/12/24 04:13:27;;;;;;;26.25;4.60;;;;;;;;;;4972281;28;20450;-70
2020/12/24 04:15:53;;;;;;;41.67;5.82;;;;;;;;;;4959744;28;20042;-70
2020/12/24 04:18:19;;;;;;;17.92;4.68;;;;;;;;;;4961868;28;20050;-69
2020/12/24 04:20:56;;;;;;;72.13;5.32;;;;;;;;;;4965409;28;20059;-69
2020/12/24 04:23:23;;;;;;;92.90;5.18;;;;;;;;;;4970406;28;20049;-70
2020/12/24 04:25:49;;;;;;;79.55;4.75;;;;;;;;;;4959595;28;20534;-70
2020/12/24 04:28:15;;;;;;;115.78;6.00;;;;;;;;;;4971147;28;20043;-69
2020/12/24 04:30:43;;;;;;;62.53;4.93;;;;;;;;;;4966371;28;20070;-69
2020/12/24 04:33:09;;;;;;;;;;;;;;;;;;4966780;28;20051;-70
2020/12/24 04:35:35;;;;;;;34.03;3.75;;;;;;;;;;4962709;28;20021;-69
2020/12/24 04:38:01;;;;;;;21.02;3.80;;;;;;;;;;4973153;28;20049;-70
2020/12/24 04:40:27;;;;;;;39.20;6.07;;;;;;;;;;4963070;28;20042;-70
2020/12/24 04:42:53;;;;;;;56.28;4.65;;;;;;;;;;4959439;28;20609;-69
2020/12/24 04:45:21;;;;;;;72.10;6.38;;;;;;;;;;4968601;28;20094;-69
2020/12/24 04:47:48;;;;;;;19.33;3.60;;;;;;;;;;4964376;28;20060;-69
2020/12/24 04:50:15;;;;;;;55.70;4.07;;;;;;;;;;4958943;28;20042;-69
2020/12/24 04:52:42;;;;;;;11.55;2.67;;;;;;;;;;4964642;28;20042;-69
2020/12/24 04:55:10;;;;;;;14.57;3.25;;;;;;;;;;4948090;28;20546;-69
2020/12/24 04:57:36;;;;;;;10.75;3.28;;;;;;;;;;4966081;28;20101;-69
2020/12/24 05:00:02;;;;;;;19.20;3.78;;;;;;;;;;4973271;28;20050;-69
2020/12/24 05:02:29;;;;;;;11.93;3.60;;;;;;;;;;4968172;28;20050;-69
2020/12/24 05:04:55;;;;;;;24.85;3.42;;;;;;;;;;4971050;28;20083;-69
2020/12/24 05:07:21;;;;;;;7.40;3.03;;;;;;;;;;4965693;28;20082;-69
2020/12/24 05:09:50;;;;;;;13.43;3.30;;;;;;;;;;4962427;28;20052;-69
2020/12/24 05:12:26;;;;;;;18.10;3.75;;;;;;;;;;4951626;28;20050;-69
2020/12/24 05:14:52;;;;;;;22.50;3.78;;;;;;;;;;4967326;28;20047;-69
2020/12/24 05:17:20;;;;;;;14.55;3.20;;;;;;;;;;4973014;28;20039;-69
2020/12/24 05:19:49;;;;;;;;;;;;;;;;;;4963670;28;20047;-69
2020/12/24 05:22:15;;;;;;;;;;;;;;;;;;4963758;28;19926;-69
2020/12/24 05:24:41;;;;;;;7.35;3.13;;;;;;;;;;4964052;28;19922;-69
2020/12/24 05:27:08;;;;;;;7.38;3.15;;;;;;;;;;4970483;28;20035;-69
2020/12/24 05:29:36;;;;;;;11.43;2.92;;;;;;;;;;4969378;28;20084;-69
2020/12/24 05:32:02;;;;;;;;;;;;;;;;;;4964850;28;20084;-69
2020/12/24 05:34:29;;;;;;;16.17;3.72;;;;;;;;;;4968181;28;19961;-69
2020/12/24 05:37:14;;;;;;;14.77;3.03;;;;;;;;;;4970565;28;20525;-69
2020/12/24 05:39:41;;;;;;;12.23;3.90;;;;;;;;;;4964891;28;20380;-69
2020/12/24 05:42:07;;;;;;;20.95;4.50;;;;;;;;;;4966012;28;20494;-69
2020/12/24 05:44:35;;;;;;;32.38;4.00;;;;;;;;;;4964621;28;20118;-69
2020/12/24 05:47:01;;;;;;;9.02;3.67;;;;;;;;;;4967317;28;20051;-69
2020/12/24 05:49:28;;;;;;;8.68;3.53;;;;;;;;;;4964420;28;20730;-69
2020/12/24 05:51:57;;;;;;;7.00;3.22;;;;;;;;;;4965343;28;20054;-69
2020/12/24 05:54:24;;;;;;;8.75;3.78;;;;;;;;;;4959582;28;20067;-69
2020/12/24 05:56:51;;;;;;;9.30;3.58;;;;;;;;;;4964306;28;20085;-69
2020/12/24 05:59:19;;;;;;;9.48;3.47;;;;;;;;;;4964049;28;20043;-69
2020/12/24 06:02:00;;;;;;;8.77;3.35;;;;;;;;;;4963330;28;20113;-69
2020/12/24 06:04:44;;;;;;;7.70;3.30;;;;;;;;;;4960354;28;20455;-69
2020/12/24 06:07:12;;;;;;;7.45;3.20;;;;;;;;;;4961415;28;20510;-69
2020/12/24 06:09:40;;;;;;;9.00;3.13;;;;;;;;;;4956313;28;20063;-69
2020/12/24 06:12:16;;;;;;;7.07;3.42;;;;;;;;;;4949426;28;20301;-69
2020/12/24 06:14:47;;;;;;;6.65;3.60;;;;;;;;;;4942209;28;20043;-68
2020/12/24 06:17:14;;;;;;;6.63;3.35;;;;;;;;;;4944663;29;20059;-69
2020/12/24 06:19:41;;;;;;;7.18;3.65;;;;;;;;;;4948910;28;20043;-69
2020/12/24 06:22:13;;;;;;;7.05;3.63;;;;;;;;;;4944371;28;20074;-69
2020/12/24 06:24:40;;;;;;;5.78;2.83;;;;;;;;;;4944132;28;20058;-69
2020/12/24 06:27:10;;;;;;;7.22;3.15;;;;;;;;;;4944527;29;20131;-68
2020/12/24 06:29:38;;;;;;;7.57;3.40;;;;;;;;;;4952110;28;20066;-69
2020/12/24 06:32:06;;;;;;;6.47;2.72;;;;;;;;;;4945047;28;20047;-69
2020/12/24 06:34:38;;;;;;;6.00;3.30;;;;;;;;;;4940583;29;20035;-68
2020/12/24 06:37:15;;;;;;;5.70;3.08;;;;;;;;;;4947114;29;20627;-69
2020/12/24 06:39:42;;;;;;;5.45;2.92;;;;;;;;;;4946228;29;20153;-68
2020/12/24 06:42:08;;;;;;;;;;;;;;;;;;4942712;29;20051;-68
2020/12/24 06:44:45;;;;;;;7.03;3.58;;;;;;;;;;4943151;28;19922;-68
2020/12/24 06:47:16;;;;;;;6.75;3.42;;;;;;;;;;4946053;28;20043;-68
2020/12/24 06:49:42;;;;;;;9.32;3.70;;;;;;;;;;4939681;28;20456;-68
2020/12/24 06:52:09;;;;;;;9.35;4.38;;;;;;;;;;4942049;29;20095;-68
2020/12/24 06:54:38;;;;;;;7.88;4.10;;;;;;;;;;4942394;28;20075;-68
2020/12/24 06:57:22;;;;;;;12.85;4.80;;;;;;;;;;4945252;28;20035;-68
2020/12/24 06:59:49;;;;;;;9.57;4.63;;;;;;;;;;4944622;28;20051;-68
2020/12/24 07:02:27;;;;;;;8.60;4.00;;;;;;;;;;4944487;28;20067;-69
2020/12/24 07:04:53;;;;;;;10.50;4.45;;;;;;;;;;4947301;28;20135;-68
2020/12/24 07:07:38;;;;;;;10.20;4.22;;;;;;;;;;4943590;28;20130;-68
2020/12/24 07:10:04;;;;;;;11.00;3.83;;;;;;;;;;4950239;28;20520;-68
2020/12/24 07:12:31;;;;;;;8.82;3.88;;;;;;;;;;4941564;28;20062;-68
2020/12/24 07:15:17;;;;;;;10.45;3.90;;;;;;;;;;4951177;29;20506;-68
2020/12/24 07:17:44;;;;;;;8.45;4.18;;;;;;;;;;4941731;28;20495;-68
2020/12/24 07:20:14;;;;;;;8.68;4.10;;;;;;;;;;4943572;28;20058;-68
2020/12/24 07:22:52;;;;;;;7.28;3.80;;;;;;;;;;4944869;28;20048;-68
2020/12/24 07:25:19;;;;;;;6.10;3.03;;;;;;;;;;4945954;28;20056;-68
2020/12/24 07:27:47;;;;;;;10.20;4.63;;;;;;;;;;4925378;28;20684;-68
2020/12/24 07:30:13;;;;;;;29.10;5.20;;;;;;;;;;4946750;28;20047;-68
2020/12/24 07:32:39;;;;;;;10.73;5.05;;;;;;;;;;4939955;28;20047;-68
2020/12/24 07:35:05;;;;;;;14.68;4.28;;;;;;;;;;4946739;28;20823;-68
2020/12/24 07:37:32;;;;;;;11.82;4.90;;;;;;;;;;4946289;28;20102;-68
2020/12/24 07:39:58;;;;;;;14.75;4.43;;;;;;;;;;4944323;28;20043;-68
2020/12/24 07:42:25;;;;;;;9.52;4.05;;;;;;;;;;4941093;28;20043;-68
2020/12/24 07:44:51;;;;;;;8.77;4.40;;;;;;;;;;4951233;28;20054;-68
2020/12/24 07:47:17;;;;;;;8.27;4.85;;;;;;;;;;4940860;28;20051;-68
2020/12/24 07:49:50;;;;;;;12.13;5.45;;;;;;;;;;4944336;29;20349;-68
2020/12/24 07:52:16;;;;;;;9.93;5.30;;;;;;;;;;4949773;28;20055;-67
2020/12/24 07:54:42;;;;;;;10.85;4.88;;;;;;;;;;4942576;29;20416;-68
2020/12/24 07:57:08;;;;;;;8.05;4.70;;;;;;;;;;4944634;28;20520;-67
2020/12/24 07:59:34;;;;;;;5.70;3.40;;;;;;;;;;4950062;28;20098;-67
2020/12/24 08:02:04;;;;;;;6.45;3.70;;;;;;;;;;4948253;28;20484;-67
2020/12/24 08:04:30;;;;;;;7.38;3.80;;;;;;;;;;4950905;28;20562;-67
2020/12/24 08:06:57;;;;;;;6.30;2.63;;;;;;;;;;4947668;28;20190;-68
2020/12/24 08:09:23;;;;;;;7.85;3.55;;;;;;;;;;4954504;28;20305;-67
2020/12/24 08:11:52;;;;;;;10.07;3.53;;;;;;;;;;4973719;28;20035;-67
2020/12/24 08:14:25;;;;;;;6.90;3.30;;;;;;;;;;4967540;28;20509;-67
2020/12/24 08:16:51;;;;;;;6.18;3.60;;;;;;;;;;4967441;28;20046;-67
2020/12/24 08:19:22;;;;;;;3.90;2.15;;;;;;;;;;4971078;28;20078;-67
2020/12/24 08:22:01;;;;;;;5.28;2.78;;;;;;;;;;4971939;28;20043;-67
2020/12/24 08:24:30;;;;;;;5.68;3.00;;;;;;;;;;4964232;28;20131;-68
2020/12/24 08:26:57;;;;;;;6.43;3.20;;;;;;;;;;4965872;28;20530;-67
2020/12/24 08:29:24;;;;;;;4.82;2.80;;;;;;;;;;4968360;28;20043;-67
2020/12/24 08:31:51;;;;;;;5.28;2.90;;;;;;;;;;4962954;28;20587;-67
2020/12/24 08:34:17;;;;;;;4.80;2.58;;;;;;;;;;4963664;28;20042;-68
2020/12/24 08:36:44;;;;;;;5.78;2.60;;;;;;;;;;4960217;28;20047;-67
2020/12/24 08:39:11;;;;;;;6.95;2.90;;;;;;;;;;4963371;28;20103;-67
2020/12/24 08:41:47;;;;;;;4.97;2.38;;;;;;;;;;4964766;28;20034;-67
2020/12/24 08:44:17;;;;;;;4.93;2.85;;;;;;;;;;4958334;28;20058;-67
2020/12/24 08:46:44;;;;;;;3.10;2.20;;;;;;;;;;4962269;28;20047;-68
2020/12/24 08:49:23;;;;;;;4.07;2.40;;;;;;;;;;4963875;28;20051;-67
2020/12/24 08:51:50;;;;;;;4.22;2.25;;;;;;;;;;4964419;28;20101;-67
2020/12/24 08:54:20;;;;;;;4.55;2.20;;;;;;;;;;4949873;28;20046;-67
2020/12/24 08:56:47;;;;;;;3.53;2.03;;;;;;;;;;4962264;28;20042;-67
2020/12/24 08:59:13;;;;;;;4.07;2.45;;;;;;;;;;4962289;28;20047;-67
2020/12/24 09:01:41;;;;;;;6.47;2.30;;;;;;;;;;4967877;28;20101;-67
2020/12/24 09:04:17;;;;;;;2.88;1.88;;;;;;;;;;4966863;28;20077;-68
2020/12/24 09:06:43;;;;;;;5.13;2.50;;;;;;;;;;4964213;28;20105;-67
2020/12/24 09:09:23;;;;;;;6.18;2.28;;;;;;;;;;4964580;28;20059;-67
2020/12/24 09:11:50;;;;;;;3.17;1.73;;;;;;;;;;4949998;28;20054;-68
2020/12/24 09:14:21;;;;;;;4.13;2.13;;;;;;;;;;4944946;28;20145;-67
2020/12/24 09:16:54;;;;;;;5.95;2.13;;;;;;;;;;4948762;28;20107;-67
2020/12/24 09:19:20;;;;;;;4.30;2.08;;;;;;;;;;4946553;28;20047;-67
2020/12/24 09:22:05;;;;;;;2.97;1.92;;;;;;;;;;4946763;28;20122;-67
2020/12/24 09:24:31;;;;;;;8.68;2.10;;;;;;;;;;4940717;29;20042;-67
2020/12/24 09:26:57;;;;;;;4.30;2.10;;;;;;;;;;4944538;29;20107;-67
2020/12/24 09:29:27;;;;;;;3.80;2.05;;;;;;;;;;4937196;29;20044;-68
2020/12/24 09:32:00;;;;;;;6.43;2.30;;;;;;;;;;4943775;29;20043;-67
2020/12/24 09:34:27;;;;;;;5.32;2.35;;;;;;;;;;4943040;28;20048;-67
2020/12/24 09:36:53;;;;;;;2.78;2.20;;;;;;;;;;4936945;29;20474;-68
2020/12/24 09:39:19;;;;;;;5.65;2.08;;;;;;;;;;4944953;29;20055;-67
2020/12/24 09:41:46;;;;;;;6.32;2.35;;;;;;;;;;4949484;28;20508;-67
2020/12/24 09:44:13;;;;;;;4.47;2.00;;;;;;;;;;4943255;28;20040;-67
2020/12/24 09:46:40;;;;;;;6.35;2.17;;;;;;;;;;4940669;28;20653;-67
2020/12/24 09:49:06;;;;;;;5.43;2.30;;;;;;;;;;4937588;29;20039;-68
2020/12/24 09:51:36;;;;;;;4.75;1.80;;;;;;;;;;4940160;29;20055;-67
2020/12/24 09:54:03;;;;;;;7.95;2.50;;;;;;;;;;4949547;29;20048;-67
2020/12/24 09:56:29;;;;;;;5.18;2.63;;;;;;;;;;4939208;29;20065;-67
2020/12/24 09:58:55;;;;;;;2.77;1.60;;;;;;;;;;4947546;28;20067;-68
2020/12/24 10:01:22;;;;;;;4.03;2.42;;;;;;;;;;4946695;29;20107;-67
2020/12/24 10:03:48;;;;;;;5.05;2.40;;;;;;;;;;4949727;29;20558;-67
2020/12/24 10:06:14;;;;;;;7.07;2.17;;;;;;;;;;4941866;28;20044;-67
2020/12/24 10:08:40;;;;;;;3.00;2.20;;;;;;;;;;4942734;28;20050;-68
2020/12/24 10:11:11;;;;;;;4.77;2.07;;;;;;;;;;4961390;28;20047;-68
2020/12/24 10:13:37;;;;;;;4.60;2.22;;;;;;;;;;4968005;28;20547;-67
2020/12/24 10:16:03;;;;;;;5.53;2.60;;;;;;;;;;4961760;28;20043;-67
2020/12/24 10:18:30;;;;;;;3.27;1.90;;;;;;;;;;4955137;28;20068;-68
2020/12/24 10:20:56;;;;;;;6.10;2.40;;;;;;;;;;4963555;28;20042;-68
2020/12/24 10:23:22;;;;;;;6.25;2.30;;;;;;;;;;4957867;28;20051;-67
2020/12/24 10:25:48;;;;;;;6.28;2.70;;;;;;;;;;4961167;28;20082;-67
2020/12/24 10:28:15;;;;;;;5.53;2.60;;;;;;;;;;4959004;28;20038;-67
2020/12/24 10:30:42;;;;;;;3.83;2.13;;;;;;;;;;4964049;28;20064;-68
2020/12/24 10:33:08;;;;;;;8.20;2.58;;;;;;;;;;4958175;28;20081;-67
2020/12/24 10:35:36;;;;;;;5.18;2.65;;;;;;;;;;4958231;28;20050;-67
2020/12/24 10:38:02;;;;;;;4.63;2.15;;;;;;;;;;4960789;28;20067;-67
2020/12/24 10:40:30;;;;;;;5.07;2.40;;;;;;;;;;4964608;28;20098;-67
2020/12/24 10:42:57;;;;;;;6.80;2.28;;;;;;;;;;4964508;28;20556;-67
2020/12/24 10:45:25;;;;;;;4.65;2.33;;;;;;;;;;4964031;28;20043;-67
2020/12/24 10:47:51;;;;;;;6.35;2.30;;;;;;;;;;4964304;28;20047;-66
2020/12/24 10:50:18;;;;;;;6.47;2.28;;;;;;;;;;4967067;28;20047;-66
2020/12/24 10:52:45;;;;;;;7.85;2.70;;;;;;;;;;4960505;28;20090;-66
2020/12/24 10:55:11;;;;;;;6.93;2.67;;;;;;;;;;4960537;28;20372;-67
2020/12/24 10:57:37;;;;;;;8.60;4.40;;;;;;;;;;4962392;28;20640;-66
2020/12/24 11:00:04;;;;;;;2.92;2.40;;;;;;;;;;4965955;28;20122;-66
2020/12/24 11:02:30;;;;;;;5.68;2.92;;;;;;;;;;4962407;28;20122;-66
2020/12/24 11:04:56;;;;;;;3.60;2.60;;;;;;;;;;4964488;28;20148;-66
2020/12/24 11:07:23;;;;;;;5.97;2.70;;;;;;;;;;4960995;28;20090;-66
2020/12/24 11:09:49;;;;;;;3.53;1.77;;;;;;;;;;4965046;28;20055;-66
2020/12/24 11:12:15;;;;;;;2.90;2.20;;;;;;;;;;4962706;28;20129;-66
2020/12/24 11:14:41;;;;;;;7.13;2.63;;;;;;;;;;4964871;28;20414;-66
2020/12/24 11:17:07;;;;;;;3.05;2.15;;;;;;;;;;4962260;28;20043;-67
2020/12/24 11:19:33;;;;;;;6.28;2.63;;;;;;;;;;4960288;28;20046;-67
2020/12/24 11:21:59;;;;;;;6.13;2.03;;;;;;;;;;4963875;28;20102;-66
2020/12/24 11:24:26;;;;;;;3.50;2.03;;;;;;;;;;4962201;28;20058;-67
2020/12/24 11:26:52;;;;;;;6.25;2.17;;;;;;;;;;4961839;28;20145;-67
2020/12/24 11:29:19;;;;;;;5.20;2.28;;;;;;;;;;4966458;28;20050;-67
2020/12/24 11:31:45;;;;;;;3.20;1.88;;;;;;;;;;4957364;28;20099;-66
2020/12/24 11:34:11;;;;;;;4.30;2.00;;;;;;;;;;4962073;28;20498;-66
2020/12/24 11:36:37;;;;;;;5.45;2.20;;;;;;;;;;4959761;28;20395;-67
2020/12/24 11:39:06;;;;;;;3.40;1.77;;;;;;;;;;4968152;28;20061;-67
2020/12/24 11:41:34;;;;;;;3.08;1.90;;;;;;;;;;4968963;28;20050;-66
2020/12/24 11:44:00;;;;;;;3.35;1.70;;;;;;;;;;4965709;28;20420;-66
2020/12/24 11:46:27;;;;;;;8.80;2.10;;;;;;;;;;4962332;28;20042;-67
2020/12/24 11:48:54;;;;;;;4.38;2.00;;;;;;;;;;4965312;28;20534;-66
2020/12/24 11:51:21;;;;;;;4.45;1.80;;;;;;;;;;4956475;28;20094;-67
2020/12/24 11:53:50;;;;;;;3.90;3.22;;;;;;;;;;4966849;28;20046;-67
2020/12/24 11:56:17;;;;;;;3.75;2.15;;;;;;;;;;4961518;28;20038;-67
2020/12/24 11:58:44;;;;;;;2.83;1.90;;;;;;;;;;4964374;28;20716;-67
2020/12/24 12:01:17;;;;;;;5.18;2.30;;;;;;;;;;4969078;28;20047;-67
2020/12/24 12:03:44;;;;;;;5.18;3.00;;;;;;;;;;4961855;28;20079;-67
2020/12/24 12:06:10;;;;;;;5.10;2.75;;;;;;;;;;4950804;28;20393;-67
2020/12/24 12:08:36;;;;;;;5.90;2.55;;;;;;;;;;4972858;28;20449;-67
2020/12/24 12:11:03;;;;;;;8.77;3.40;;;;;;;;;;4969855;28;20078;-67
2020/12/24 12:13:30;;;;;;;8.85;3.03;;;;;;;;;;4958979;28;20334;-67
2020/12/24 12:15:56;;;;;;;6.00;2.70;;;;;;;;;;4968684;28;20042;-67
2020/12/24 12:18:22;;;;;;;5.03;2.70;;;;;;;;;;4965810;28;20088;-67
2020/12/24 12:20:48;;;;;;;5.93;2.50;;;;;;;;;;4961281;28;20039;-67
2020/12/24 12:23:15;;;;;;;4.05;2.08;;;;;;;;;;4963519;28;20074;-67
2020/12/24 12:25:41;;;;;;;3.00;1.90;;;;;;;;;;4961588;28;20514;-67
2020/12/24 12:28:07;;;;;;;3.17;2.10;;;;;;;;;;4966129;28;20050;-67
2020/12/24 12:30:34;;;;;;;3.78;1.77;;;;;;;;;;4963504;28;20082;-67
2020/12/24 12:33:00;;;;;;;2.45;1.88;;;;;;;;;;4960103;28;20391;-67
2020/12/24 12:35:28;;;;;;;7.40;2.50;;;;;;;;;;4962657;28;20126;-67
2020/12/24 12:37:54;;;;;;;4.50;1.90;;;;;;;;;;4971518;28;20082;-68
2020/12/24 12:40:20;;;;;;;2.97;1.77;;;;;;;;;;4966974;28;20075;-67
2020/12/24 12:42:46;;;;;;;4.80;1.88;;;;;;;;;;4960431;28;20102;-67
2020/12/24 12:45:12;;;;;;;5.00;2.53;;;;;;;;;;4964107;28;20045;-68
2020/12/24 12:47:39;;;;;;;3.50;2.13;;;;;;;;;;4961408;28;20394;-68
2020/12/24 12:50:06;;;;;;;5.47;1.93;;;;;;;;;;4962840;28;20043;-68
2020/12/24 12:52:32;;;;;;;6.55;2.10;;;;;;;;;;4962480;28;20621;-68
2020/12/24 12:54:58;;;;;;;5.03;1.80;;;;;;;;;;4965960;28;20035;-68
2020/12/24 12:57:24;;;;;;;5.40;1.67;;;;;;;;;;4958802;28;20051;-68
2020/12/24 12:59:51;;;;;;;3.13;1.95;;;;;;;;;;4965132;28;20058;-68
2020/12/24 13:02:17;;;;;;;6.30;2.10;;;;;;;;;;4960068;28;20134;-68
2020/12/24 13:04:43;;;;;;;1.55;1.35;;;;;;;;;;4956842;28;20123;-68
2020/12/24 13:07:10;;;;;;;4.40;2.10;;;;;;;;;;4954356;28;20130;-70
2020/12/24 13:09:36;;;;;;;3.80;1.63;;;;;;;;;;4959127;28;20070;-70
2020/12/24 13:12:02;;;;;;;3.67;1.45;;;;;;;;;;4968269;28;20105;-70
2020/12/24 13:14:29;;;;;;;4.73;1.50;;;;;;;;;;4960036;28;20043;-70
2020/12/24 13:16:56;;;;;;;6.10;1.88;;;;;;;;;;4969295;28;20541;-70
2020/12/24 13:19:23;;;;;;;3.35;1.60;;;;;;;;;;4967252;28;20109;-70
2020/12/24 13:21:49;;;;;;;4.80;1.40;;;;;;;;;;4965357;28;20043;-70
2020/12/24 13:24:16;;;;;;;3.15;1.73;;;;;;;;;;4966337;28;20047;-71
2020/12/24 13:26:51;;;;;;;6.93;1.80;;;;;;;;;;4967715;28;20066;-70
2020/12/24 13:29:17;;;;;;;3.03;1.50;;;;;;;;;;4967551;28;20055;-70
2020/12/24 13:31:43;;;;;;;3.75;1.55;;;;;;;;;;4961587;28;20051;-71
2020/12/24 13:34:09;;;;;;;2.78;1.55;;;;;;;;;;4966047;28;20047;-71
2020/12/24 13:36:36;;;;;;;5.22;1.35;;;;;;;;;;4964237;28;20058;-70
2020/12/24 13:39:02;;;;;;;2.92;1.70;;;;;;;;;;4965517;28;20047;-70
2020/12/24 13:41:30;;;;;;;3.53;1.42;;;;;;;;;;4961405;28;20051;-70
2020/12/24 13:43:56;;;;;;;3.20;1.30;;;;;;;;;;4963294;28;20063;-70
2020/12/24 13:46:22;;;;;;;6.13;1.13;;;;;;;;;;4960793;28;20050;-69
2020/12/24 13:48:48;;;;;;;2.58;1.40;;;;;;;;;;4958834;28;20094;-70
2020/12/24 13:51:14;;;;;;;2.03;1.20;;;;;;;;;;4965163;28;20502;-69
2020/12/24 13:53:44;;;;;;;1.92;1.25;;;;;;;;;;4961105;28;20043;-69
2020/12/24 13:56:16;;;;;;;4.05;1.83;;;;;;;;;;4962207;28;20047;-69
2020/12/24 13:58:42;;;;;;;2.58;1.65;;;;;;;;;;4958764;28;20051;-69
2020/12/24 14:01:09;;;;;;;2.13;1.10;;;;;;;;;;4960632;28;20051;-69
2020/12/24 14:03:36;;;;;;;9.80;3.83;;;;;;;;;;4964831;28;20046;-70
2020/12/24 14:06:03;;;;;;;;;;;;;;;;;;4971299;28;20069;-69
2020/12/24 14:08:29;;;;;;;3.13;1.80;;;;;;;;;;4973656;28;19926;-68
2020/12/24 14:10:55;;;;;;;2.70;1.30;;;;;;;;;;4975589;28;20050;-69
2020/12/24 14:13:21;;;;;;;2.13;1.50;;;;;;;;;;4973394;28;20049;-68
2020/12/24 14:15:47;;;;;;;4.30;1.33;;;;;;;;;;4977138;28;20128;-68
2020/12/24 14:18:17;;;;;;;3.50;1.80;;;;;;;;;;4971801;28;20055;-68
2020/12/24 14:20:43;;;;;;;6.15;1.30;;;;;;;;;;4972452;28;20126;-68
2020/12/24 14:23:10;;;;;;;3.50;1.60;;;;;;;;;;4972939;28;20048;-68
2020/12/24 14:25:40;;;;;;;3.33;1.60;;;;;;;;;;4975226;28;20145;-68
2020/12/24 14:28:06;;;;;;;5.85;1.70;;;;;;;;;;4971468;28;20109;-68
2020/12/24 14:30:32;;;;;;;2.40;1.50;;;;;;;;;;4972196;28;20053;-68
2020/12/24 14:32:58;;;;;;;2.30;1.55;;;;;;;;;;4975156;28;20096;-68
2020/12/24 14:35:25;;;;;;;4.43;1.98;;;;;;;;;;4973231;28;20039;-68
2020/12/24 14:37:51;;;;;;;1.95;1.40;;;;;;;;;;4969320;28;20038;-68
2020/12/24 14:40:17;;;;;;;3.72;1.73;;;;;;;;;;4971797;28;20046;-68